sensor_id;sensor_type;location;lat;lon;timestamp;pressure;altitude;pressure_sealevel;temperature;humidity
66176;BME280;52977;44.816;20.538;2023-03-18T00:00:20;100154.47;;;7.70;47.54
66176;BME280;52977;44.816;20.538;2023-03-18T00:02:47;100142.97;;;7.55;47.45
66176;BME280;52977;44.816;20.538;2023-03-18T00:05:13;100158.88;;;7.66;47.37
66176;BME280;52977;44.816;20.538;2023-03-18T00:07:40;100083.13;;;7.16;48.05
66176;BME280;52977;44.816;20.538;2023-03-18T00:10:08;100062.13;;;7.03;47.64
66176;BME280;52977;44.816;20.538;2023-03-18T00:12:36;100131.34;;;7.49;47.70
66176;BME280;52977;44.816;20.538;2023-03-18T00:15:08;100097.72;;;7.26;47.59
66176;BME280;52977;44.816;20.538;2023-03-18T00:17:35;100107.09;;;7.33;47.74
66176;BME280;52977;44.816;20.538;2023-03-18T00:20:04;100125.63;;;7.50;47.54
66176;BME280;52977;44.816;20.538;2023-03-18T00:22:36;100137.31;;;7.51;47.42
66176;BME280;52977;44.816;20.538;2023-03-18T00:25:04;100135.06;;;7.58;47.73
66176;BME280;52977;44.816;20.538;2023-03-18T00:27:32;100138.34;;;7.55;47.63
66176;BME280;52977;44.816;20.538;2023-03-18T00:29:59;100082.22;;;7.26;48.00
66176;BME280;52977;44.816;20.538;2023-03-18T00:32:25;100125.28;;;7.57;47.58
66176;BME280;52977;44.816;20.538;2023-03-18T00:34:54;100090.66;;;7.25;47.65
66176;BME280;52977;44.816;20.538;2023-03-18T00:37:22;100126.09;;;7.58;47.37
66176;BME280;52977;44.816;20.538;2023-03-18T00:39:58;100122.06;;;7.55;47.71
66176;BME280;52977;44.816;20.538;2023-03-18T00:42:30;100124.25;;;7.53;47.58
66176;BME280;52977;44.816;20.538;2023-03-18T00:45:03;100111.75;;;7.52;47.68
66176;BME280;52977;44.816;20.538;2023-03-18T00:47:29;100074.66;;;7.23;47.88
66176;BME280;52977;44.816;20.538;2023-03-18T00:49:56;100111.31;;;7.45;47.63
66176;BME280;52977;44.816;20.538;2023-03-18T00:52:22;100097.31;;;7.32;47.99
66176;BME280;52977;44.816;20.538;2023-03-18T00:54:48;100033.44;;;6.97;47.74
66176;BME280;52977;44.816;20.538;2023-03-18T00:57:14;100114.66;;;7.36;48.07
66176;BME280;52977;44.816;20.538;2023-03-18T00:59:40;100095.66;;;7.36;48.13
66176;BME280;52977;44.816;20.538;2023-03-18T01:02:06;100095.16;;;7.34;48.32
66176;BME280;52977;44.816;20.538;2023-03-18T01:04:33;100096.78;;;7.35;48.84
66176;BME280;52977;44.816;20.538;2023-03-18T01:06:59;100094.06;;;7.35;48.60
66176;BME280;52977;44.816;20.538;2023-03-18T01:09:27;100092.19;;;7.31;48.95
66176;BME280;52977;44.816;20.538;2023-03-18T01:11:53;100023.53;;;6.82;49.41
66176;BME280;52977;44.816;20.538;2023-03-18T01:14:19;100074.13;;;7.21;49.24
66176;BME280;52977;44.816;20.538;2023-03-18T01:16:45;100034.22;;;6.97;49.72
66176;BME280;52977;44.816;20.538;2023-03-18T01:19:12;100012.19;;;6.80;49.74
66176;BME280;52977;44.816;20.538;2023-03-18T01:21:39;100043.41;;;7.01;50.18
66176;BME280;52977;44.816;20.538;2023-03-18T01:24:06;100072.97;;;7.27;50.37
66176;BME280;52977;44.816;20.538;2023-03-18T01:26:34;100049.28;;;7.09;50.83
66176;BME280;52977;44.816;20.538;2023-03-18T01:29:02;100071.84;;;7.28;51.15
66176;BME280;52977;44.816;20.538;2023-03-18T01:31:30;100078.56;;;7.36;51.17
66176;BME280;52977;44.816;20.538;2023-03-18T01:34:02;100087.34;;;7.28;51.26
66176;BME280;52977;44.816;20.538;2023-03-18T01:36:38;100081.03;;;7.32;51.72
66176;BME280;52977;44.816;20.538;2023-03-18T01:39:07;100021.19;;;6.99;51.42
66176;BME280;52977;44.816;20.538;2023-03-18T01:41:33;100076.19;;;7.29;52.38
66176;BME280;52977;44.816;20.538;2023-03-18T01:44:01;100046.53;;;7.14;52.03
66176;BME280;52977;44.816;20.538;2023-03-18T01:46:34;100067.53;;;7.27;52.71
66176;BME280;52977;44.816;20.538;2023-03-18T01:49:09;100066.41;;;7.28;52.60
66176;BME280;52977;44.816;20.538;2023-03-18T01:51:39;100064.28;;;7.25;53.13
66176;BME280;52977;44.816;20.538;2023-03-18T01:54:07;100053.78;;;7.18;52.44
66176;BME280;52977;44.816;20.538;2023-03-18T01:56:36;100014.38;;;7.02;52.64
66176;BME280;52977;44.816;20.538;2023-03-18T01:59:05;100026.28;;;7.06;52.56
66176;BME280;52977;44.816;20.538;2023-03-18T02:01:46;99908.78;;;6.38;52.44
66176;BME280;52977;44.816;20.538;2023-03-18T02:04:15;100057.41;;;7.33;52.73
66176;BME280;52977;44.816;20.538;2023-03-18T02:06:41;100061.81;;;7.29;52.72
66176;BME280;52977;44.816;20.538;2023-03-18T02:09:09;99992.84;;;6.87;52.98
66176;BME280;52977;44.816;20.538;2023-03-18T02:11:43;100062.91;;;7.28;52.89
66176;BME280;52977;44.816;20.538;2023-03-18T02:14:14;100056.88;;;7.31;52.70
66176;BME280;52977;44.816;20.538;2023-03-18T02:17:08;100042.66;;;7.20;52.49
66176;BME280;52977;44.816;20.538;2023-03-18T02:22:38;100058.34;;;7.23;52.69
66176;BME280;52977;44.816;20.538;2023-03-18T02:25:27;100041.13;;;7.09;52.51
66176;BME280;52977;44.816;20.538;2023-03-18T02:28:01;100057.72;;;7.07;53.00
66176;BME280;52977;44.816;20.538;2023-03-18T02:30:34;99983.94;;;6.57;53.04
66176;BME280;52977;44.816;20.538;2023-03-18T02:33:08;100059.97;;;7.00;52.99
66176;BME280;52977;44.816;20.538;2023-03-18T02:35:35;99957.59;;;6.38;52.74
66176;BME280;52977;44.816;20.538;2023-03-18T02:38:02;99952.50;;;6.31;52.98
66176;BME280;52977;44.816;20.538;2023-03-18T02:40:32;100059.69;;;7.01;53.32
66176;BME280;52977;44.816;20.538;2023-03-18T02:43:17;100054.56;;;7.00;53.38
66176;BME280;52977;44.816;20.538;2023-03-18T02:48:47;100050.06;;;6.90;53.99
66176;BME280;52977;44.816;20.538;2023-03-18T02:51:16;100057.28;;;6.76;54.25
66176;BME280;52977;44.816;20.538;2023-03-18T02:53:44;100049.22;;;6.65;55.04
66176;BME280;52977;44.816;20.538;2023-03-18T02:56:11;100035.19;;;6.58;55.15
66176;BME280;52977;44.816;20.538;2023-03-18T02:58:39;100026.16;;;6.39;56.30
66176;BME280;52977;44.816;20.538;2023-03-18T03:01:06;100050.97;;;6.56;56.41
66176;BME280;52977;44.816;20.538;2023-03-18T03:03:34;99983.66;;;6.05;56.81
66176;BME280;52977;44.816;20.538;2023-03-18T03:06:00;100045.91;;;6.44;56.87
66176;BME280;52977;44.816;20.538;2023-03-18T03:08:27;100032.16;;;6.36;57.07
66176;BME280;52977;44.816;20.538;2023-03-18T03:10:54;100038.34;;;6.41;57.16
66176;BME280;52977;44.816;20.538;2023-03-18T03:13:21;100024.78;;;6.41;56.66
66176;BME280;52977;44.816;20.538;2023-03-18T03:15:48;100034.03;;;6.40;56.58
66176;BME280;52977;44.816;20.538;2023-03-18T03:18:16;100025.94;;;6.35;56.63
66176;BME280;52977;44.816;20.538;2023-03-18T03:20:42;100034.28;;;6.44;56.55
66176;BME280;52977;44.816;20.538;2023-03-18T03:23:12;99969.06;;;6.01;56.88
66176;BME280;52977;44.816;20.538;2023-03-18T03:25:39;100018.72;;;6.25;56.96
66176;BME280;52977;44.816;20.538;2023-03-18T03:28:06;99914.19;;;5.50;57.74
66176;BME280;52977;44.816;20.538;2023-03-18T03:30:34;100042.53;;;6.28;57.72
66176;BME280;52977;44.816;20.538;2023-03-18T03:33:00;100028.59;;;6.11;58.17
66176;BME280;52977;44.816;20.538;2023-03-18T03:35:27;100040.78;;;6.13;58.59
66176;BME280;52977;44.816;20.538;2023-03-18T03:37:53;100044.25;;;6.19;58.58
66176;BME280;52977;44.816;20.538;2023-03-18T03:40:21;100028.16;;;5.98;58.70
66176;BME280;52977;44.816;20.538;2023-03-18T03:42:49;100051.09;;;6.11;58.89
66176;BME280;52977;44.816;20.538;2023-03-18T03:45:16;100049.22;;;6.07;58.76
66176;BME280;52977;44.816;20.538;2023-03-18T03:47:43;99980.19;;;5.59;58.91
66176;BME280;52977;44.816;20.538;2023-03-18T03:50:29;100036.88;;;5.90;59.55
66176;BME280;52977;44.816;20.538;2023-03-18T03:52:56;100016.31;;;5.84;60.09
66176;BME280;52977;44.816;20.538;2023-03-18T03:55:23;100045.22;;;5.94;60.37
66176;BME280;52977;44.816;20.538;2023-03-18T03:57:52;100040.59;;;5.94;60.95
66176;BME280;52977;44.816;20.538;2023-03-18T04:00:20;100040.38;;;5.91;61.37
66176;BME280;52977;44.816;20.538;2023-03-18T04:02:49;100047.72;;;5.90;61.47
66176;BME280;52977;44.816;20.538;2023-03-18T04:05:19;100054.25;;;5.84;62.12
66176;BME280;52977;44.816;20.538;2023-03-18T04:07:45;100022.38;;;5.71;61.88
66176;BME280;52977;44.816;20.538;2023-03-18T04:10:13;100047.75;;;5.85;61.99
66176;BME280;52977;44.816;20.538;2023-03-18T04:12:41;100050.19;;;5.81;62.61
66176;BME280;52977;44.816;20.538;2023-03-18T04:15:08;100048.31;;;5.82;62.69
66176;BME280;52977;44.816;20.538;2023-03-18T04:17:35;100001.94;;;5.44;62.68
66176;BME280;52977;44.816;20.538;2023-03-18T04:20:02;100050.75;;;5.78;62.64
66176;BME280;52977;44.816;20.538;2023-03-18T04:22:31;100054.00;;;5.80;62.96
66176;BME280;52977;44.816;20.538;2023-03-18T04:24:59;100045.72;;;5.61;63.62
66176;BME280;52977;44.816;20.538;2023-03-18T04:27:27;100061.63;;;5.73;63.57
66176;BME280;52977;44.816;20.538;2023-03-18T04:29:54;100047.88;;;5.64;63.60
66176;BME280;52977;44.816;20.538;2023-03-18T04:32:26;100034.94;;;5.51;64.11
66176;BME280;52977;44.816;20.538;2023-03-18T04:34:52;100041.75;;;5.48;64.64
66176;BME280;52977;44.816;20.538;2023-03-18T04:37:19;100056.09;;;5.49;64.63
66176;BME280;52977;44.816;20.538;2023-03-18T04:39:49;100059.94;;;5.43;65.33
66176;BME280;52977;44.816;20.538;2023-03-18T04:42:15;100061.00;;;5.42;64.84
66176;BME280;52977;44.816;20.538;2023-03-18T04:44:43;100071.34;;;5.35;65.42
66176;BME280;52977;44.816;20.538;2023-03-18T04:47:10;100056.97;;;5.34;65.62
66176;BME280;52977;44.816;20.538;2023-03-18T04:49:37;100034.31;;;5.20;66.13
66176;BME280;52977;44.816;20.538;2023-03-18T04:52:04;100061.03;;;5.31;65.95
66176;BME280;52977;44.816;20.538;2023-03-18T04:54:32;100068.06;;;5.33;66.13
66176;BME280;52977;44.816;20.538;2023-03-18T04:57:02;100069.91;;;5.47;66.05
66176;BME280;52977;44.816;20.538;2023-03-18T04:59:33;100061.84;;;5.37;65.60
66176;BME280;52977;44.816;20.538;2023-03-18T05:02:03;100025.13;;;5.10;65.90
66176;BME280;52977;44.816;20.538;2023-03-18T05:04:30;100059.44;;;5.25;66.19
66176;BME280;52977;44.816;20.538;2023-03-18T05:06:57;100078.31;;;5.41;66.18
66176;BME280;52977;44.816;20.538;2023-03-18T05:09:29;100075.97;;;5.29;66.45
66176;BME280;52977;44.816;20.538;2023-03-18T05:11:57;100063.81;;;5.16;66.72
66176;BME280;52977;44.816;20.538;2023-03-18T05:14:29;100069.47;;;5.25;66.84
66176;BME280;52977;44.816;20.538;2023-03-18T05:16:57;100062.19;;;5.20;66.99
66176;BME280;52977;44.816;20.538;2023-03-18T05:19:23;100012.50;;;4.90;66.73
66176;BME280;52977;44.816;20.538;2023-03-18T05:22:00;100090.25;;;5.40;66.86
66176;BME280;52977;44.816;20.538;2023-03-18T05:24:26;100090.22;;;5.45;66.80
66176;BME280;52977;44.816;20.538;2023-03-18T05:26:52;100074.31;;;5.33;66.57
66176;BME280;52977;44.816;20.538;2023-03-18T05:29:22;100095.34;;;5.52;66.30
66176;BME280;52977;44.816;20.538;2023-03-18T05:32:17;100101.84;;;5.51;66.26
66176;BME280;52977;44.816;20.538;2023-03-18T05:34:50;100082.69;;;5.37;67.06
66176;BME280;52977;44.816;20.538;2023-03-18T05:37:16;100027.59;;;5.07;66.91
66176;BME280;52977;44.816;20.538;2023-03-18T05:39:50;100087.78;;;5.43;66.69
66176;BME280;52977;44.816;20.538;2023-03-18T05:42:18;100111.03;;;5.55;66.91
66176;BME280;52977;44.816;20.538;2023-03-18T05:44:45;100106.97;;;5.57;66.78
66176;BME280;52977;44.816;20.538;2023-03-18T05:47:14;100069.69;;;5.39;66.61
66176;BME280;52977;44.816;20.538;2023-03-18T05:49:51;100103.69;;;5.60;67.09
66176;BME280;52977;44.816;20.538;2023-03-18T05:52:20;100039.72;;;5.25;66.71
66176;BME280;52977;44.816;20.538;2023-03-18T05:54:49;100105.53;;;5.65;66.80
66176;BME280;52977;44.816;20.538;2023-03-18T05:57:21;100084.25;;;5.48;67.06
66176;BME280;52977;44.816;20.538;2023-03-18T05:59:50;100108.03;;;5.56;67.20
66176;BME280;52977;44.816;20.538;2023-03-18T06:02:16;100099.41;;;5.49;67.57
66176;BME280;52977;44.816;20.538;2023-03-18T06:04:43;100115.59;;;5.59;67.69
66176;BME280;52977;44.816;20.538;2023-03-18T06:07:10;100113.72;;;5.60;67.54
66176;BME280;52977;44.816;20.538;2023-03-18T06:09:38;100004.97;;;4.87;67.41
66176;BME280;52977;44.816;20.538;2023-03-18T06:12:04;100121.00;;;5.64;67.57
66176;BME280;52977;44.816;20.538;2023-03-18T06:14:31;100126.69;;;5.63;67.40
66176;BME280;52977;44.816;20.538;2023-03-18T06:17:00;100115.31;;;5.61;67.97
66176;BME280;52977;44.816;20.538;2023-03-18T06:19:26;100121.00;;;5.64;68.03
66176;BME280;52977;44.816;20.538;2023-03-18T06:21:53;100119.09;;;5.65;68.01
66176;BME280;52977;44.816;20.538;2023-03-18T06:24:19;100125.34;;;5.65;67.80
66176;BME280;52977;44.816;20.538;2023-03-18T06:26:47;100079.09;;;5.52;67.64
66176;BME280;52977;44.816;20.538;2023-03-18T06:29:13;100118.19;;;5.85;67.84
66176;BME280;52977;44.816;20.538;2023-03-18T06:31:39;100113.84;;;5.84;67.41
66176;BME280;52977;44.816;20.538;2023-03-18T06:34:08;100121.91;;;5.94;67.18
66176;BME280;52977;44.816;20.538;2023-03-18T06:36:37;100123.53;;;5.95;66.62
66176;BME280;52977;44.816;20.538;2023-03-18T06:39:07;100131.38;;;5.97;67.02
66176;BME280;52977;44.816;20.538;2023-03-18T06:41:35;100126.81;;;5.92;67.56
66176;BME280;52977;44.816;20.538;2023-03-18T06:44:22;100021.25;;;5.32;67.23
66176;BME280;52977;44.816;20.538;2023-03-18T06:46:51;100060.03;;;5.72;67.23
66176;BME280;52977;44.816;20.538;2023-03-18T06:49:19;100081.63;;;5.82;66.90
66176;BME280;52977;44.816;20.538;2023-03-18T06:51:52;100134.72;;;6.28;66.83
66176;BME280;52977;44.816;20.538;2023-03-18T06:54:19;100108.25;;;6.15;67.00
66176;BME280;52977;44.816;20.538;2023-03-18T06:56:47;100132.50;;;6.36;66.91
66176;BME280;52977;44.816;20.538;2023-03-18T06:59:16;100143.34;;;6.36;66.90
66176;BME280;52977;44.816;20.538;2023-03-18T07:01:44;100133.25;;;6.41;66.34
66176;BME280;52977;44.816;20.538;2023-03-18T07:04:11;100132.16;;;6.47;65.99
66176;BME280;52977;44.816;20.538;2023-03-18T07:06:37;100134.28;;;6.50;66.29
66176;BME280;52977;44.816;20.538;2023-03-18T07:09:04;100127.44;;;6.58;65.75
66176;BME280;52977;44.816;20.538;2023-03-18T07:11:30;100072.50;;;6.13;66.02
66176;BME280;52977;44.816;20.538;2023-03-18T07:14:00;100021.63;;;5.94;65.87
66176;BME280;52977;44.816;20.538;2023-03-18T07:16:30;100038.91;;;6.09;65.72
66176;BME280;52977;44.816;20.538;2023-03-18T07:18:56;100125.91;;;6.76;65.71
66176;BME280;52977;44.816;20.538;2023-03-18T07:21:29;100137.22;;;6.83;65.82
66176;BME280;52977;44.816;20.538;2023-03-18T07:23:55;100133.97;;;6.87;65.39
66176;BME280;52977;44.816;20.538;2023-03-18T07:26:24;100102.06;;;6.73;64.79
66176;BME280;52977;44.816;20.538;2023-03-18T07:28:50;100137.91;;;6.99;65.14
66176;BME280;52977;44.816;20.538;2023-03-18T07:31:17;100110.34;;;6.87;65.79
66176;BME280;52977;44.816;20.538;2023-03-18T07:33:43;100136.09;;;7.14;65.23
66176;BME280;52977;44.816;20.538;2023-03-18T07:36:09;100139.13;;;7.12;65.34
66176;BME280;52977;44.816;20.538;2023-03-18T07:38:35;100107.50;;;6.97;64.85
66176;BME280;52977;44.816;20.538;2023-03-18T07:41:02;100085.88;;;6.92;64.69
66176;BME280;52977;44.816;20.538;2023-03-18T07:43:28;100070.84;;;6.76;64.02
66176;BME280;52977;44.816;20.538;2023-03-18T07:45:54;100091.13;;;7.08;64.23
66176;BME280;52977;44.816;20.538;2023-03-18T07:48:21;100103.97;;;7.21;64.24
66176;BME280;52977;44.816;20.538;2023-03-18T07:50:47;100155.00;;;7.48;63.71
66176;BME280;52977;44.816;20.538;2023-03-18T07:53:13;100080.78;;;7.10;63.90
66176;BME280;52977;44.816;20.538;2023-03-18T07:55:43;100123.34;;;7.39;63.97
66176;BME280;52977;44.816;20.538;2023-03-18T07:58:09;100117.91;;;7.39;63.41
66176;BME280;52977;44.816;20.538;2023-03-18T08:00:36;100148.28;;;7.65;63.09
66176;BME280;52977;44.816;20.538;2023-03-18T08:03:02;100158.56;;;7.68;64.19
66176;BME280;52977;44.816;20.538;2023-03-18T08:05:28;100118.94;;;7.43;64.71
66176;BME280;52977;44.816;20.538;2023-03-18T08:07:56;100112.97;;;7.41;65.08
66176;BME280;52977;44.816;20.538;2023-03-18T08:10:23;100144.94;;;7.73;66.73
66176;BME280;52977;44.816;20.538;2023-03-18T08:12:50;100156.78;;;7.58;67.91
66176;BME280;52977;44.816;20.538;2023-03-18T08:15:16;100110.06;;;7.37;68.22
66176;BME280;52977;44.816;20.538;2023-03-18T08:17:42;100136.38;;;7.36;68.17
66176;BME280;52977;44.816;20.538;2023-03-18T08:20:08;100127.00;;;7.29;68.08
66176;BME280;52977;44.816;20.538;2023-03-18T08:22:35;100144.13;;;7.48;68.35
66176;BME280;52977;44.816;20.538;2023-03-18T08:25:01;100141.38;;;7.53;68.42
66176;BME280;52977;44.816;20.538;2023-03-18T08:27:28;100158.50;;;7.73;67.83
66176;BME280;52977;44.816;20.538;2023-03-18T08:29:54;100165.19;;;7.81;68.25
66176;BME280;52977;44.816;20.538;2023-03-18T08:32:20;100160.03;;;7.79;67.78
66176;BME280;52977;44.816;20.538;2023-03-18T08:34:47;100158.56;;;7.68;67.92
66176;BME280;52977;44.816;20.538;2023-03-18T08:37:18;100183.34;;;7.85;67.33
66176;BME280;52977;44.816;20.538;2023-03-18T08:39:45;100172.19;;;7.87;68.09
66176;BME280;52977;44.816;20.538;2023-03-18T08:42:12;100157.69;;;7.73;68.56
66176;BME280;52977;44.816;20.538;2023-03-18T08:44:38;100165.25;;;7.76;68.32
66176;BME280;52977;44.816;20.538;2023-03-18T08:47:05;100131.66;;;7.47;68.87
66176;BME280;52977;44.816;20.538;2023-03-18T08:49:31;100120.78;;;7.47;69.05
66176;BME280;52977;44.816;20.538;2023-03-18T08:51:58;100160.94;;;7.75;68.54
66176;BME280;52977;44.816;20.538;2023-03-18T08:54:24;100185.50;;;7.89;68.09
66176;BME280;52977;44.816;20.538;2023-03-18T08:56:52;100189.81;;;7.90;67.47
66176;BME280;52977;44.816;20.538;2023-03-18T08:59:20;100189.97;;;7.98;67.79
66176;BME280;52977;44.816;20.538;2023-03-18T09:01:47;100139.94;;;7.80;67.88
66176;BME280;52977;44.816;20.538;2023-03-18T09:04:19;100148.47;;;7.93;66.63
66176;BME280;52977;44.816;20.538;2023-03-18T09:06:46;100187.41;;;8.26;67.18
66176;BME280;52977;44.816;20.538;2023-03-18T09:09:14;100180.56;;;8.29;67.25
66176;BME280;52977;44.816;20.538;2023-03-18T09:11:40;100187.19;;;8.42;65.98
66176;BME280;52977;44.816;20.538;2023-03-18T09:14:06;100166.75;;;8.25;65.51
66176;BME280;52977;44.816;20.538;2023-03-18T09:16:36;100162.16;;;8.39;65.42
66176;BME280;52977;44.816;20.538;2023-03-18T09:19:03;100137.25;;;8.32;64.03
66176;BME280;52977;44.816;20.538;2023-03-18T09:21:29;100178.34;;;8.69;63.35
66176;BME280;52977;44.816;20.538;2023-03-18T09:23:56;100181.78;;;8.75;62.56
66176;BME280;52977;44.816;20.538;2023-03-18T09:26:23;100184.75;;;8.59;62.29
66176;BME280;52977;44.816;20.538;2023-03-18T09:28:49;100191.28;;;8.58;62.73
66176;BME280;52977;44.816;20.538;2023-03-18T09:31:15;100181.06;;;8.69;62.42
66176;BME280;52977;44.816;20.538;2023-03-18T09:33:42;100189.88;;;8.80;61.78
66176;BME280;52977;44.816;20.538;2023-03-18T09:36:08;100188.56;;;8.91;63.06
66176;BME280;52977;44.816;20.538;2023-03-18T09:38:35;100198.28;;;8.97;62.15
66176;BME280;52977;44.816;20.538;2023-03-18T09:52:16;100161.00;;;9.12;60.23
66176;BME280;52977;44.816;20.538;2023-03-18T09:57:37;100197.09;;;9.17;59.28
66176;BME280;52977;44.816;20.538;2023-03-18T10:02:45;100196.09;;;9.27;59.02
66176;BME280;52977;44.816;20.538;2023-03-18T10:05:24;100192.28;;;9.28;58.97
66176;BME280;52977;44.816;20.538;2023-03-18T10:07:53;100138.19;;;9.07;59.83
66176;BME280;52977;44.816;20.538;2023-03-18T10:10:29;100201.19;;;9.48;59.62
66176;BME280;52977;44.816;20.538;2023-03-18T10:13:15;100191.59;;;9.50;60.75
66176;BME280;52977;44.816;20.538;2023-03-18T10:15:51;100138.59;;;9.15;60.16
66176;BME280;52977;44.816;20.538;2023-03-18T10:18:32;100194.41;;;9.59;58.88
66176;BME280;52977;44.816;20.538;2023-03-18T10:26:38;100178.66;;;9.84;59.49
66176;BME280;52977;44.816;20.538;2023-03-18T10:29:39;100189.22;;;9.99;57.91
66176;BME280;52977;44.816;20.538;2023-03-18T10:35:17;100195.53;;;10.08;57.93
66176;BME280;52977;44.816;20.538;2023-03-18T10:37:56;100193.94;;;10.07;57.99
66176;BME280;52977;44.816;20.538;2023-03-18T10:40:23;100148.81;;;9.87;57.92
66176;BME280;52977;44.816;20.538;2023-03-18T10:42:51;100185.50;;;9.95;57.33
66176;BME280;52977;44.816;20.538;2023-03-18T10:47:50;100133.72;;;9.67;57.24
66176;BME280;52977;44.816;20.538;2023-03-18T10:50:25;100142.19;;;9.80;57.13
66176;BME280;52977;44.816;20.538;2023-03-18T10:52:59;100174.84;;;10.07;56.91
66176;BME280;52977;44.816;20.538;2023-03-18T10:55:34;100147.00;;;9.97;56.08
66176;BME280;52977;44.816;20.538;2023-03-18T10:58:16;100163.09;;;10.21;55.57
66176;BME280;52977;44.816;20.538;2023-03-18T11:00:43;100104.50;;;9.82;55.51
66176;BME280;52977;44.816;20.538;2023-03-18T11:06:21;100175.00;;;10.25;56.05
66176;BME280;52977;44.816;20.538;2023-03-18T11:08:59;100180.22;;;10.35;55.49
66176;BME280;52977;44.816;20.538;2023-03-18T11:11:28;100163.34;;;10.33;55.05
66176;BME280;52977;44.816;20.538;2023-03-18T11:14:00;100146.25;;;10.41;54.54
66176;BME280;52977;44.816;20.538;2023-03-18T11:16:38;100154.38;;;10.55;53.91
66176;BME280;52977;44.816;20.538;2023-03-18T11:22:43;100163.97;;;10.75;53.86
66176;BME280;52977;44.816;20.538;2023-03-18T11:24:45;100156.78;;;10.80;52.35
66176;BME280;52977;44.816;20.538;2023-03-18T11:27:27;100127.78;;;10.61;53.33
66176;BME280;52977;44.816;20.538;2023-03-18T11:30:11;100153.84;;;10.99;53.69
66176;BME280;52977;44.816;20.538;2023-03-18T11:33:01;100117.16;;;10.91;53.48
66176;BME280;52977;44.816;20.538;2023-03-18T11:35:58;100151.84;;;11.22;53.38
66176;BME280;52977;44.816;20.538;2023-03-18T11:38:29;100150.25;;;11.21;51.63
66176;BME280;52977;44.816;20.538;2023-03-18T11:41:22;100144.50;;;11.31;52.19
66176;BME280;52977;44.816;20.538;2023-03-18T11:44:03;100147.25;;;11.40;51.74
66176;BME280;52977;44.816;20.538;2023-03-18T11:46:44;100134.41;;;11.40;51.52
66176;BME280;52977;44.816;20.538;2023-03-18T11:49:20;100132.91;;;11.34;52.06
66176;BME280;52977;44.816;20.538;2023-03-18T11:57:18;100118.34;;;11.56;51.26
66176;BME280;52977;44.816;20.538;2023-03-18T12:14:26;100113.78;;;12.18;49.90
66176;BME280;52977;44.816;20.538;2023-03-18T12:17:04;100112.78;;;12.31;49.81
66176;BME280;52977;44.816;20.538;2023-03-18T12:25:19;100099.38;;;12.56;49.24
66176;BME280;52977;44.816;20.538;2023-03-18T12:27:57;100115.63;;;12.70;49.51
66176;BME280;52977;44.816;20.538;2023-03-18T12:30:37;100098.25;;;12.66;48.37
66176;BME280;52977;44.816;20.538;2023-03-18T12:35:48;100106.63;;;12.61;48.72
66176;BME280;52977;44.816;20.538;2023-03-18T12:38:38;100102.41;;;12.81;48.81
66176;BME280;52977;44.816;20.538;2023-03-18T12:49:20;100050.59;;;12.50;47.30
66176;BME280;52977;44.816;20.538;2023-03-18T12:52:00;100051.63;;;12.75;46.29
66176;BME280;52977;44.816;20.538;2023-03-18T12:54:31;100094.75;;;12.95;46.22
66176;BME280;52977;44.816;20.538;2023-03-18T12:57:03;100032.06;;;12.55;46.63
66176;BME280;52977;44.816;20.538;2023-03-18T13:04:40;100093.72;;;13.47;46.12
66176;BME280;52977;44.816;20.538;2023-03-18T13:07:51;100098.19;;;13.22;46.42
66176;BME280;52977;44.816;20.538;2023-03-18T13:10:21;100035.63;;;12.47;45.73
66176;BME280;52977;44.816;20.538;2023-03-18T13:12:56;100026.53;;;12.73;46.37
66176;BME280;52977;44.816;20.538;2023-03-18T13:18:13;100103.06;;;13.46;46.96
66176;BME280;52977;44.816;20.538;2023-03-18T13:20:42;100059.16;;;13.55;46.14
66176;BME280;52977;44.816;20.538;2023-03-18T13:23:37;100066.72;;;13.58;44.29
66176;BME280;52977;44.816;20.538;2023-03-18T13:38:38;100087.69;;;14.17;41.78
66176;BME280;52977;44.816;20.538;2023-03-18T13:43:46;100035.47;;;13.72;44.21
66176;BME280;52977;44.816;20.538;2023-03-18T13:46:23;100024.38;;;13.47;45.00
66176;BME280;52977;44.816;20.538;2023-03-18T13:48:55;100077.44;;;13.42;46.35
66176;BME280;52977;44.816;20.538;2023-03-18T13:53:49;100048.63;;;12.97;47.01
66176;BME280;52977;44.816;20.538;2023-03-18T13:56:33;100041.47;;;12.75;47.72
66176;BME280;52977;44.816;20.538;2023-03-18T14:04:54;100010.53;;;12.45;48.06
66176;BME280;52977;44.816;20.538;2023-03-18T14:07:23;100037.47;;;12.73;46.95
66176;BME280;52977;44.816;20.538;2023-03-18T14:12:37;100067.72;;;12.85;48.11
66176;BME280;52977;44.816;20.538;2023-03-18T14:22:45;100057.16;;;12.66;49.31
66176;BME280;52977;44.816;20.538;2023-03-18T14:27:58;100007.88;;;12.01;48.85
66176;BME280;52977;44.816;20.538;2023-03-18T14:33:03;100025.72;;;12.16;49.56
66176;BME280;52977;44.816;20.538;2023-03-18T14:35:37;100039.56;;;12.20;49.46
66176;BME280;52977;44.816;20.538;2023-03-18T14:38:24;100057.25;;;12.31;49.48
66176;BME280;52977;44.816;20.538;2023-03-18T14:40:54;100065.09;;;12.41;49.01
66176;BME280;52977;44.816;20.538;2023-03-18T14:43:26;100055.78;;;12.42;48.96
66176;BME280;52977;44.816;20.538;2023-03-18T14:45:58;100058.03;;;12.49;48.34
66176;BME280;52977;44.816;20.538;2023-03-18T14:48:33;100063.34;;;12.37;48.87
66176;BME280;52977;44.816;20.538;2023-03-18T14:51:05;100044.66;;;12.39;48.75
66176;BME280;52977;44.816;20.538;2023-03-18T14:53:41;100055.63;;;12.30;48.86
66176;BME280;52977;44.816;20.538;2023-03-18T14:56:18;100068.34;;;12.43;48.86
66176;BME280;52977;44.816;20.538;2023-03-18T14:58:45;100046.09;;;12.36;49.53
66176;BME280;52977;44.816;20.538;2023-03-18T15:01:13;100055.72;;;12.60;49.41
66176;BME280;52977;44.816;20.538;2023-03-18T15:03:45;100049.38;;;12.29;49.75
66176;BME280;52977;44.816;20.538;2023-03-18T15:06:23;100025.88;;;12.11;49.11